Time;durP1;ratioP1;P1;durP2;ratioP2;P2;SDS_P1;SDS_P2;PMS_P1;PMS_P2;Temp;Humidity;BMP_temperature;BMP_pressure;BME280_temperature;BME280_humidity;BME280_pressure;Samples;Min_cycle;Max_cycle;Signal;HPM_P1;HPM_P2
2021/01/29 18:53:33;;;;;;;7.67;2.60;;;9.40;99.90;;;;;;5114785;28;776326;-65
2021/01/29 18:55:59;;;;;;;13.60;3.47;;;9.40;99.90;;;;;;5140538;28;20170;-65
2021/01/29 18:58:25;;;;;;;9.80;2.93;;;9.40;99.90;;;;;;5143107;28;20162;-65
2021/01/29 19:00:52;;;;;;;8.80;2.30;;;9.30;99.90;;;;;;5141818;28;20163;-64
2021/01/29 19:03:18;;;;;;;7.73;2.53;;;9.30;99.90;;;;;;5125009;28;20182;-64
2021/01/29 19:05:43;;;;;;;6.53;2.40;;;9.30;99.90;;;;;;5139810;28;20212;-65
2021/01/29 19:08:10;;;;;;;10.40;2.40;;;9.30;99.90;;;;;;5143009;28;20177;-65
2021/01/29 19:10:36;;;;;;;12.93;2.87;;;9.40;99.90;;;;;;5142921;28;20256;-64
2021/01/29 19:13:02;;;;;;;11.73;2.57;;;9.40;99.90;;;;;;5142751;28;20230;-65
2021/01/29 19:15:29;;;;;;;8.70;2.20;;;9.40;99.90;;;;;;5140188;28;20233;-65
2021/01/29 19:17:55;;;;;;;7.93;2.57;;;9.40;99.90;;;;;;5142670;28;20567;-65
2021/01/29 19:20:24;;;;;;;7.53;2.33;;;9.40;99.90;;;;;;5124288;28;20192;-64
2021/01/29 19:22:50;;;;;;;8.05;2.15;;;9.40;99.90;;;;;;5142679;28;20839;-64
2021/01/29 19:25:17;;;;;;;5.27;2.70;;;9.40;99.90;;;;;;5121678;28;20329;-65
2021/01/29 19:27:43;;;;;;;8.63;2.73;;;9.40;99.90;;;;;;5124249;28;20162;-64
2021/01/29 19:30:12;;;;;;;8.23;3.07;;;9.50;99.90;;;;;;5142222;28;20171;-64
2021/01/29 19:32:38;;;;;;;10.40;3.08;;;9.50;99.90;;;;;;5142108;28;20946;-65
2021/01/29 19:35:06;;;;;;;14.07;3.90;;;9.50;99.90;;;;;;5139938;28;20166;-65
2021/01/29 19:37:32;;;;;;;11.50;3.20;;;9.70;99.90;;;;;;5131474;28;20173;-65
2021/01/29 19:39:57;;;;;;;14.40;3.30;;;9.70;99.90;;;;;;5128623;28;20260;-64
2021/01/29 19:42:23;;;;;;;13.17;3.63;;;9.60;99.90;;;;;;5110685;28;20159;-64
2021/01/29 19:44:49;;;;;;;10.47;3.27;;;9.60;99.90;;;;;;5126801;28;20237;-65
2021/01/29 19:47:15;;;;;;;9.33;3.60;;;9.70;99.90;;;;;;5127415;28;20162;-64
2021/01/29 19:49:42;;;;;;;6.17;3.13;;;9.60;99.90;;;;;;5128582;28;20171;-64
2021/01/29 19:52:08;;;;;;;10.27;4.30;;;9.60;99.90;;;;;;5128351;28;20206;-65
2021/01/29 19:54:33;;;;;;;12.10;3.90;;;9.60;99.90;;;;;;5128448;28;20208;-64
2021/01/29 19:57:01;;;;;;;6.73;3.30;;;9.50;99.90;;;;;;5125598;28;20643;-64
2021/01/29 19:59:27;;;;;;;11.50;3.50;;;9.50;99.90;;;;;;5127968;28;20238;-64
2021/01/29 20:01:57;;;;;;;7.90;3.27;;;9.90;99.90;;;;;;5128127;28;20166;-64
2021/01/29 20:04:23;;;;;;;8.77;3.20;;;9.90;99.90;;;;;;5128205;28;20166;-64
2021/01/29 20:06:49;;;;;;;8.53;3.43;;;9.80;99.90;;;;;;5125747;28;20645;-65
2021/01/29 20:09:14;;;;;;;8.80;3.03;;;9.80;99.90;;;;;;5128355;28;20182;-65
2021/01/29 20:11:40;;;;;;;9.60;2.93;;;9.80;99.90;;;;;;5128027;28;20163;-64
2021/01/29 20:14:06;;;;;;;10.47;3.70;;;9.70;99.90;;;;;;5127758;28;20177;-64
2021/01/29 20:16:33;;;;;;;8.33;3.07;;;9.70;99.90;;;;;;5125468;28;20171;-64
2021/01/29 20:18:59;;;;;;;9.67;3.37;;;9.70;99.90;;;;;;5127913;28;20162;-64
2021/01/29 20:21:25;;;;;;;7.57;2.87;;;9.80;99.90;;;;;;5128005;28;20182;-64
2021/01/29 20:23:50;;;;;;;6.70;3.10;;;9.80;99.90;;;;;;5128028;28;20171;-65
2021/01/29 20:26:17;;;;;;;14.50;4.40;;;9.90;99.90;;;;;;5125435;28;20186;-64
2021/01/29 20:28:44;;;;;;;10.60;3.87;;;9.90;99.90;;;;;;5127294;28;20525;-64
2021/01/29 20:31:12;;;;;;;9.93;3.57;;;10.00;99.90;;;;;;5127722;28;20170;-64
2021/01/29 20:33:39;;;;;;;7.53;2.93;;;10.00;99.90;;;;;;5127835;28;20151;-64
2021/01/29 20:36:06;;;;;;;5.83;3.07;;;10.00;99.90;;;;;;5125210;28;20167;-64
2021/01/29 20:38:34;;;;;;;10.03;4.17;;;10.00;99.90;;;;;;5127772;28;20230;-64
2021/01/29 20:41:01;;;;;;;9.00;4.03;;;10.00;99.90;;;;;;5109182;28;20174;-64
2021/01/29 20:43:28;;;;;;;9.20;4.00;;;10.00;99.90;;;;;;5109289;28;20162;-64
2021/01/29 20:45:54;;;;;;;10.53;3.23;;;10.00;99.90;;;;;;5124574;28;20194;-64
2021/01/29 20:48:19;;;;;;;14.57;4.40;;;9.90;99.90;;;;;;5126582;28;20163;-64
2021/01/29 20:50:45;;;;;;;9.07;4.10;;;9.90;99.90;;;;;;5127228;28;20171;-64
2021/01/29 20:53:11;;;;;;;8.63;4.00;;;9.90;99.90;;;;;;5127331;28;20238;-64
2021/01/29 20:55:37;;;;;;;4.57;2.43;;;9.90;99.90;;;;;;5124794;28;20166;-64
2021/01/29 20:58:04;;;;;;;7.87;2.83;;;10.00;99.90;;;;;;5127560;28;20182;-64
2021/01/29 21:00:30;;;;;;;8.03;3.10;;;10.00;99.90;;;;;;5126842;28;20234;-64
2021/01/29 21:02:58;;;;;;;7.23;3.47;;;9.90;99.90;;;;;;5127170;28;20158;-64
2021/01/29 21:05:26;;;;;;;7.90;2.53;;;9.90;99.90;;;;;;5124441;28;20553;-64
2021/01/29 21:07:52;;;;;;;5.83;2.17;;;9.80;99.90;;;;;;5127014;28;20245;-64
2021/01/29 21:10:24;;;;;;;9.10;2.83;;;9.80;99.90;;;;;;5126857;28;20197;-64
2021/01/29 21:12:51;;;;;;;11.20;2.30;;;9.90;99.90;;;;;;5126962;28;20178;-64
2021/01/29 21:15:18;;;;;;;4.73;2.30;;;9.80;99.90;;;;;;5123474;28;20174;-64
2021/01/29 21:17:44;;;;;;;8.17;2.87;;;9.80;99.90;;;;;;5127207;28;20167;-64
2021/01/29 21:20:11;;;;;;;8.47;2.53;;;9.70;99.90;;;;;;5126951;28;20169;-64
2021/01/29 21:22:39;;;;;;;5.73;2.60;;;9.80;99.90;;;;;;5126817;28;20159;-64
2021/01/29 21:25:07;;;;;;;11.73;2.63;;;9.80;99.90;;;;;;5123744;28;20190;-64
2021/01/29 21:27:34;;;;;;;8.60;2.43;;;9.70;99.90;;;;;;5126770;28;20533;-64
2021/01/29 21:30:00;;;;;;;9.20;3.20;;;9.70;99.90;;;;;;5126074;28;20162;-64
2021/01/29 21:32:25;;;;;;;11.73;2.70;;;9.80;99.90;;;;;;5126800;28;20169;-64
2021/01/29 21:34:51;;;;;;;5.50;2.30;;;9.90;99.90;;;;;;5124848;28;20222;-64
2021/01/29 21:37:16;;;;;;;5.53;2.70;;;9.80;99.90;;;;;;5125889;28;20239;-64
2021/01/29 21:39:42;;;;;;;9.07;2.47;;;9.80;99.90;;;;;;5126288;28;20158;-64
2021/01/29 21:42:10;;;;;;;9.27;3.00;;;9.80;99.90;;;;;;5125992;28;20166;-64
2021/01/29 21:44:37;;;;;;;6.10;2.20;;;9.80;99.90;;;;;;5125062;28;20191;-64
2021/01/29 21:47:14;;;;;;;4.70;2.23;;;9.70;99.90;;;;;;5123158;28;20163;-64
2021/01/29 21:49:40;;;;;;;5.77;1.90;;;9.70;99.90;;;;;;5126103;28;20460;-64
2021/01/29 21:52:06;;;;;;;3.90;1.77;;;9.80;99.90;;;;;;5125824;28;20273;-64
2021/01/29 21:54:32;;;;;;;2.93;2.20;;;9.80;99.90;;;;;;5126179;28;20154;-64
2021/01/29 21:56:58;;;;;;;7.10;2.73;;;9.80;99.90;;;;;;5123255;28;20267;-64
2021/01/29 21:59:24;;;;;;;13.57;2.73;;;9.80;99.90;;;;;;5125659;28;20178;-64
2021/01/29 22:01:50;;;;;;;8.67;3.23;;;9.90;99.90;;;;;;5126027;28;20167;-64
2021/01/29 22:04:17;;;;;;;7.60;2.80;;;9.90;99.90;;;;;;5126117;28;20237;-64
2021/01/29 22:06:44;;;;;;;9.57;3.30;;;9.90;99.90;;;;;;5123414;28;20233;-64
2021/01/29 22:09:10;;;;;;;8.33;2.97;;;10.00;99.90;;;;;;5126146;28;20158;-64
2021/01/29 22:11:36;;;;;;;9.90;3.30;;;10.00;99.90;;;;;;5126132;28;20154;-64
2021/01/29 22:14:01;;;;;;;11.73;3.30;;;9.90;99.90;;;;;;5125454;28;20166;-64
2021/01/29 22:16:27;;;;;;;14.87;3.77;;;9.90;99.90;;;;;;5123563;28;20158;-64
2021/01/29 22:18:53;;;;;;;8.13;3.30;;;9.90;99.90;;;;;;5125610;28;20634;-64
2021/01/29 22:21:19;;;;;;;11.30;3.30;;;9.90;99.90;;;;;;5125850;28;20166;-64
2021/01/29 22:23:48;;;;;;;8.83;3.20;;;9.80;99.90;;;;;;5126293;28;20166;-64
2021/01/29 22:26:16;;;;;;;11.30;3.50;;;9.80;99.90;;;;;;5123052;28;20201;-64
2021/01/29 22:28:42;;;;;;;11.60;2.90;;;9.80;99.90;;;;;;5125426;28;20163;-64
2021/01/29 22:31:10;;;;;;;14.13;3.00;;;9.80;99.90;;;;;;5125730;28;20235;-64
2021/01/29 22:33:39;;;;;;;10.63;2.83;;;9.80;99.90;;;;;;5125995;28;20163;-64
2021/01/29 22:36:08;;;;;;;10.10;3.30;;;9.80;99.90;;;;;;5104991;28;20280;-64
2021/01/29 22:38:33;;;;;;;12.87;3.00;;;9.90;99.90;;;;;;5125939;28;20162;-64
2021/01/29 22:40:59;;;;;;;9.00;3.27;;;9.80;99.90;;;;;;5125283;28;20665;-64
2021/01/29 22:43:24;;;;;;;7.40;3.10;;;9.70;99.90;;;;;;5125717;28;20647;-65
2021/01/29 22:45:50;;;;;;;11.83;3.27;;;9.70;99.90;;;;;;5122536;28;20210;-64
2021/01/29 22:48:16;;;;;;;11.27;3.10;;;9.70;99.90;;;;;;5107354;28;20166;-64
2021/01/29 22:50:41;;;;;;;11.50;3.40;;;9.80;99.90;;;;;;5125653;28;20178;-65
2021/01/29 22:53:07;;;;;;;8.70;3.83;;;9.70;99.90;;;;;;5107029;28;20214;-64
2021/01/29 22:55:32;;;;;;;7.93;3.10;;;9.70;99.90;;;;;;5123060;28;20159;-64
2021/01/29 22:57:58;;;;;;;8.30;3.30;;;9.80;99.90;;;;;;5125456;28;20254;-64
2021/01/29 23:00:33;;;;;;;13.10;3.00;;;9.70;99.90;;;;;;5125323;28;20239;-64
2021/01/29 23:02:59;;;;;;;12.40;2.63;;;9.70;99.90;;;;;;5125582;28;20162;-64
2021/01/29 23:05:28;;;;;;;14.03;3.37;;;9.80;99.90;;;;;;5122977;28;20190;-64
2021/01/29 23:07:55;;;;;;;9.97;3.03;;;9.60;99.90;;;;;;5125614;28;20674;-64
2021/01/29 23:10:23;;;;;;;12.97;3.30;;;9.50;99.90;;;;;;5125197;28;20193;-64
2021/01/29 23:12:51;;;;;;;16.00;3.80;;;9.40;99.90;;;;;;5128143;28;20178;-64
2021/01/29 23:15:17;;;;;;;11.60;4.37;;;9.40;99.90;;;;;;5126338;28;20166;-63
2021/01/29 23:17:43;;;;;;;7.53;3.50;;;9.40;99.90;;;;;;5129491;28;20219;-64
2021/01/29 23:20:14;;;;;;;11.30;3.57;;;9.40;99.90;;;;;;5129118;28;20163;-63
2021/01/29 23:22:40;;;;;;;11.27;2.83;;;9.40;99.90;;;;;;5129088;28;20220;-63
2021/01/29 23:25:10;;;;;;;10.83;2.83;;;9.50;99.90;;;;;;5126257;28;20183;-64
2021/01/29 23:27:36;;;;;;;11.03;2.33;;;9.40;99.90;;;;;;5129312;28;20627;-64
2021/01/29 23:30:06;;;;;;;10.47;3.13;;;9.40;99.90;;;;;;5128775;28;20242;-63
2021/01/29 23:32:31;;;;;;;14.07;2.93;;;9.40;99.90;;;;;;5128586;28;20166;-63
2021/01/29 23:34:57;;;;;;;12.47;3.00;;;9.50;99.90;;;;;;5126687;28;20857;-64
2021/01/29 23:37:23;;;;;;;8.23;2.50;;;9.30;99.90;;;;;;5128618;28;20184;-63
2021/01/29 23:39:48;;;;;;;8.37;2.57;;;9.40;99.90;;;;;;5128709;28;20198;-63
2021/01/29 23:42:16;;;;;;;10.50;2.73;;;9.40;99.90;;;;;;5128678;28;20167;-64
2021/01/29 23:44:41;;;;;;;12.87;3.30;;;9.30;99.90;;;;;;5127709;28;20651;-64
2021/01/29 23:47:07;;;;;;;10.67;2.77;;;9.20;99.90;;;;;;5108525;28;20169;-64
2021/01/29 23:49:33;;;;;;;12.60;2.67;;;9.20;99.90;;;;;;5128400;28;20166;-64
2021/01/29 23:51:59;;;;;;;9.37;2.33;;;9.10;99.90;;;;;;5128189;28;20171;-63
2021/01/29 23:54:26;;;;;;;19.33;3.10;;;9.10;99.90;;;;;;5128663;28;20241;-63
2021/01/29 23:56:52;;;;;;;12.50;2.40;;;9.10;99.90;;;;;;5125812;28;20241;-64
2021/01/29 23:59:18;;;;;;;10.93;3.07;;;9.10;99.90;;;;;;5128294;28;20174;-63
